Tours, France

12:39 PM CET on December 03, 2016 (GMT +0100)
Val de Loire Air Base | | Change Station

Elev 367 ft 47.44 °N, 0.73 °E | Updated 9 minutes ago

Clear
Clear
45 °F
Feels Like 37 °F
N
17
Wind Variable Wind from ENE

Today
High -- | Low -- °F
--% Chance of Precip.
Yesterday
High -- | Low -- °F
Precip. -- in
Pressure 30.06 in
Visibility -9999.0 miles
Clouds
Windchill 37 °F
Dew Point 36 °F
Humidity 71%
Rainfall 0.00 in
Snow Depth Not available.
8:26 AM 5:07 PM
Waxing Crescent, 14% visible
METAR LFOT 031130Z AUTO 07015KT CAVOK 07/02 Q1018 NOSIG
Pressure 30.06 in
Visibility -9999.0 miles
Clouds
Windchill 37 °F
Dew Point 36 °F
Humidity 71%
Rainfall 0.00 in
Snow Depth Not available.
8:26 AM 5:07 PM
Waxing Crescent, 14% visible
METAR LFOT 031130Z AUTO 07015KT CAVOK 07/02 Q1018 NOSIG

10-Day Weather Forecast

×

Almanac

Astronomy

Dec. 03, 2016 Rise Set
Actual Time
Civil Twilight
Nautical Twilight
Astronomical Twilight
Moon
Length of Visible Light
Length of Day
Tomorrow will be .
, % of the Moon is Illuminated

Today's Extremes

Country Highs Country Lows

Community

WunderPhotos

Upload Photos

1,955,431 photos uploaded!

WunderBlog® & News

Nearby

Air Quality

  Air Quality AQ Index Pollutant
Not available.

Snow Depth

Station Depth Elevation

Earthquake Activity

City Distance Mag. Time & Date
Minimum magnitude displayed is 2.5.

Coastal Water Temperatures

Place Temperature

Stations

Nearby Weather Stations

Station Location Temp. Windchill Dew Point Humidity Wind Precip. Elev Updated Type